Time;durP1;ratioP1;P1;durP2;ratioP2;P2;SDS_P1;SDS_P2;PMS_P1;PMS_P2;Temp;Humidity;BMP_temperature;BMP_pressure;BME280_temperature;BME280_humidity;BME280_pressure;Samples;Min_cycle;Max_cycle;Signal;HPM_P1;HPM_P2
2021/09/13 00:00:47;;;;;;;1.50;0.52;;;11.30;99.90;;;;;;5011051;28;20105;-69
2021/09/13 00:03:13;;;;;;;2.20;0.90;;;11.30;99.90;;;;;;5011228;28;20030;-68
2021/09/13 00:05:39;;;;;;;2.53;0.90;;;11.30;99.90;;;;;;5010897;28;20026;-68
2021/09/13 00:08:05;;;;;;;1.25;0.60;;;11.20;99.90;;;;;;5010820;28;20118;-68
2021/09/13 00:10:31;;;;;;;2.60;0.80;;;11.30;99.90;;;;;;5010796;28;20083;-69
2021/09/13 00:12:56;;;;;;;1.17;0.90;;;11.30;99.90;;;;;;5010684;28;20025;-68
2021/09/13 00:15:22;;;;;;;3.15;1.10;;;11.20;99.90;;;;;;5010643;28;20029;-68
2021/09/13 00:17:48;;;;;;;7.03;0.95;;;11.30;99.90;;;;;;5010430;28;20022;-68
2021/09/13 00:20:14;;;;;;;1.50;0.63;;;11.30;99.90;;;;;;5010919;28;20029;-68
2021/09/13 00:22:40;;;;;;;3.75;0.80;;;11.20;99.90;;;;;;5010574;28;20022;-68
2021/09/13 00:25:06;;;;;;;3.00;0.70;;;11.20;99.90;;;;;;5010409;28;20061;-68
2021/09/13 00:27:32;;;;;;;3.15;0.90;;;11.20;99.90;;;;;;5010513;28;20034;-68
2021/09/13 00:29:58;;;;;;;4.45;0.70;;;11.20;99.90;;;;;;5010593;28;20086;-68
2021/09/13 00:32:23;;;;;;;1.45;0.80;;;11.20;99.90;;;;;;5010754;28;20019;-68
2021/09/13 00:34:50;;;;;;;1.25;0.70;;;11.20;99.90;;;;;;5010549;28;20502;-68
2021/09/13 00:37:16;;;;;;;2.30;0.75;;;11.10;99.90;;;;;;5010557;28;20037;-68
2021/09/13 00:39:42;;;;;;;1.00;0.80;;;11.10;99.90;;;;;;5010145;28;20038;-67
2021/09/13 00:42:07;;;;;;;0.55;0.55;;;11.10;99.90;;;;;;5010319;28;20026;-68
2021/09/13 00:44:33;;;;;;;2.75;0.80;;;11.10;99.90;;;;;;5010216;28;20026;-68
2021/09/13 00:46:59;;;;;;;1.65;0.60;;;11.00;99.90;;;;;;5010098;28;20029;-68
2021/09/13 00:49:26;;;;;;;3.80;0.70;;;11.00;99.90;;;;;;5010331;28;20032;-68
2021/09/13 00:51:52;;;;;;;1.58;0.95;;;11.00;99.90;;;;;;5009943;28;20075;-68
2021/09/13 00:54:18;;;;;;;2.45;1.10;;;11.00;99.90;;;;;;5009210;28;20054;-68
2021/09/13 00:56:44;;;;;;;1.58;0.70;;;11.00;99.90;;;;;;5009872;28;20393;-68
2021/09/13 00:59:11;;;;;;;2.63;0.95;;;10.90;99.90;;;;;;5009885;28;20034;-68
2021/09/13 01:01:37;;;;;;;1.73;0.93;;;10.80;99.90;;;;;;5010308;28;20079;-68
2021/09/13 01:04:04;;;;;;;1.67;0.70;;;10.80;99.90;;;;;;5009888;28;20109;-68
2021/09/13 01:06:29;;;;;;;0.60;0.60;;;10.70;99.90;;;;;;5010336;28;20041;-68
2021/09/13 01:08:56;;;;;;;1.02;0.70;;;10.70;99.90;;;;;;5010192;28;20473;-68
2021/09/13 01:11:22;;;;;;;2.20;0.73;;;10.70;99.90;;;;;;5009972;28;20503;-68
2021/09/13 01:13:48;;;;;;;1.63;0.95;;;10.60;99.90;;;;;;5010096;28;20109;-68
2021/09/13 01:16:14;;;;;;;2.55;0.90;;;10.60;99.90;;;;;;5009825;28;20562;-68
2021/09/13 01:47:45;;;;;;;3.03;0.57;;;10.20;99.90;;;;;;5009078;28;20121;-68
2021/09/13 01:50:10;;;;;;;1.30;0.60;;;10.10;99.90;;;;;;5009260;28;20018;-68
2021/09/13 01:52:36;;;;;;;2.00;0.50;;;10.10;99.90;;;;;;5009374;28;20138;-68
2021/09/13 01:55:02;;;;;;;2.00;0.63;;;10.10;99.90;;;;;;5009060;28;20054;-68
2021/09/13 01:57:28;;;;;;;2.03;0.70;;;10.00;99.90;;;;;;5009074;28;20378;-68
2021/09/13 01:59:54;;;;;;;0.63;0.50;;;9.90;99.90;;;;;;5009231;28;20041;-68
2021/09/13 02:02:19;;;;;;;0.85;0.40;;;9.90;99.90;;;;;;5009093;28;20079;-68
2021/09/13 02:04:45;;;;;;;2.08;0.68;;;9.90;99.90;;;;;;5009722;28;20033;-68
2021/09/13 02:07:11;;;;;;;4.03;0.65;;;9.80;99.90;;;;;;5012844;28;20071;-68
2021/09/13 02:09:36;;;;;;;2.20;0.60;;;9.80;99.90;;;;;;5012513;28;20477;-68
2021/09/13 02:12:03;;;;;;;2.05;0.75;;;9.70;99.90;;;;;;5012960;28;20041;-68
2021/09/13 02:14:28;;;;;;;3.10;0.55;;;9.70;99.90;;;;;;5012573;28;20022;-68
2021/09/13 02:16:54;;;;;;;1.90;0.50;;;9.70;99.90;;;;;;5012551;28;20033;-68
2021/09/13 02:19:20;;;;;;;3.17;0.70;;;9.60;99.90;;;;;;5012338;28;20034;-68
2021/09/13 02:21:45;;;;;;;1.52;0.50;;;9.60;99.90;;;;;;5012531;28;20106;-68
2021/09/13 02:24:11;;;;;;;0.70;0.40;;;9.50;99.90;;;;;;5012421;28;20162;-68
2021/09/13 02:26:37;;;;;;;1.60;0.63;;;9.40;99.90;;;;;;5012370;28;20026;-68
2021/09/13 02:29:03;;;;;;;1.25;0.75;;;9.40;99.90;;;;;;5012410;28;20087;-68
2021/09/13 02:31:29;;;;;;;0.85;0.50;;;9.30;99.90;;;;;;5012528;28;20037;-68
2021/09/13 02:33:55;;;;;;;1.10;0.77;;;9.30;99.90;;;;;;5012574;28;20030;-68
2021/09/13 02:36:20;;;;;;;2.65;0.70;;;9.30;99.90;;;;;;5012190;28;20022;-68
2021/09/13 02:38:46;;;;;;;2.25;0.80;;;9.30;99.90;;;;;;5012289;28;20034;-68
2021/09/13 02:41:13;;;;;;;1.52;0.60;;;9.30;99.90;;;;;;5012099;28;20030;-68
2021/09/13 02:43:38;;;;;;;0.52;0.52;;;9.30;99.90;;;;;;5012494;28;20030;-68
2021/09/13 02:46:04;;;;;;;3.45;0.60;;;9.30;99.90;;;;;;5012194;28;20018;-68
2021/09/13 02:48:30;;;;;;;3.67;0.88;;;9.20;99.90;;;;;;5011939;28;20022;-68
2021/09/13 02:50:56;;;;;;;0.77;0.70;;;9.20;99.90;;;;;;5012019;28;20109;-68
2021/09/13 02:53:21;;;;;;;2.08;0.70;;;9.10;99.90;;;;;;5012000;28;20024;-68
2021/09/13 02:55:47;;;;;;;1.05;0.70;;;9.10;99.90;;;;;;5011794;28;20455;-68
2021/09/13 02:58:13;;;;;;;0.80;0.65;;;9.00;99.90;;;;;;5011989;28;20046;-68
2021/09/13 03:00:38;;;;;;;1.75;0.65;;;9.00;99.90;;;;;;5012107;28;20377;-68
2021/09/13 03:03:04;;;;;;;2.22;0.60;;;8.90;99.90;;;;;;5011825;28;20026;-68
2021/09/13 03:05:31;;;;;;;2.80;0.65;;;8.90;99.90;;;;;;5011577;28;20461;-68
2021/09/13 03:07:56;;;;;;;0.60;0.60;;;8.90;99.90;;;;;;5011807;28;20034;-68
2021/09/13 03:10:22;;;;;;;0.95;0.50;;;8.90;99.90;;;;;;5011503;28;20022;-68
2021/09/13 03:12:48;;;;;;;0.65;0.60;;;8.80;99.90;;;;;;5011681;28;20022;-68
2021/09/13 03:15:13;;;;;;;0.93;0.68;;;8.80;99.90;;;;;;5011130;28;20025;-68
2021/09/13 03:17:40;;;;;;;2.13;0.70;;;8.80;99.90;;;;;;5011447;28;20470;-68
2021/09/13 03:20:06;;;;;;;2.00;0.50;;;8.80;99.90;;;;;;5011754;28;20048;-68
2021/09/13 03:22:32;;;;;;;1.15;0.63;;;8.80;99.90;;;;;;5011428;28;20052;-68
2021/09/13 03:24:58;;;;;;;1.60;0.60;;;8.80;99.90;;;;;;5011630;28;20032;-68
2021/09/13 03:27:24;;;;;;;0.68;0.60;;;8.80;99.90;;;;;;5011658;28;20113;-68
2021/09/13 03:29:50;;;;;;;7.03;0.50;;;8.70;99.90;;;;;;5011363;28;20493;-68
2021/09/13 03:32:15;;;;;;;3.15;0.50;;;8.70;99.90;;;;;;5011533;28;20113;-67
2021/09/13 03:34:41;;;;;;;3.28;0.77;;;8.60;99.90;;;;;;5011533;28;20026;-67
2021/09/13 03:37:07;;;;;;;0.90;0.60;;;8.60;99.90;;;;;;5011216;28;20374;-67
2021/09/13 03:39:32;;;;;;;2.55;0.50;;;8.60;99.90;;;;;;5011370;28;20030;-67
2021/09/13 03:41:58;;;;;;;0.47;0.47;;;8.60;99.90;;;;;;5011538;28;20046;-67
2021/09/13 03:44:24;;;;;;;0.50;0.50;;;8.50;99.90;;;;;;5011102;28;20071;-67
2021/09/13 03:46:50;;;;;;;0.47;0.47;;;8.50;99.90;;;;;;5011414;28;20021;-67
2021/09/13 03:49:16;;;;;;;1.58;0.60;;;8.50;99.90;;;;;;5011182;28;20413;-67
2021/09/13 03:51:41;;;;;;;0.57;0.55;;;8.50;99.90;;;;;;5011039;28;20518;-67
2021/09/13 03:54:07;;;;;;;0.47;0.40;;;8.40;99.90;;;;;;5011117;28;20054;-68
2021/09/13 03:56:33;;;;;;;0.45;0.40;;;8.40;99.90;;;;;;5011153;28;20037;-68
2021/09/13 03:58:58;;;;;;;4.03;0.50;;;8.30;99.90;;;;;;5011322;28;20493;-68
2021/09/13 04:01:24;;;;;;;0.73;0.47;;;8.30;99.90;;;;;;5010798;28;20500;-68
2021/09/13 04:03:51;;;;;;;1.17;0.50;;;8.20;99.90;;;;;;5011285;28;20041;-68
2021/09/13 04:14:07;;;;;;;1.73;0.40;;;8.10;99.90;;;;;;5011213;28;20409;-68
2021/09/13 04:16:33;;;;;;;1.52;0.40;;;8.10;99.90;;;;;;5010530;28;20021;-68
2021/09/13 04:18:59;;;;;;;0.40;0.40;;;8.10;99.90;;;;;;5010946;28;20069;-68
2021/09/13 04:21:24;;;;;;;0.82;0.30;;;8.10;99.90;;;;;;5010374;28;20477;-68
2021/09/13 04:23:50;;;;;;;0.38;0.35;;;8.10;99.90;;;;;;5010574;28;20037;-68
2021/09/13 04:26:16;;;;;;;0.50;0.50;;;8.00;99.90;;;;;;5010519;28;20481;-67
2021/09/13 04:28:42;;;;;;;0.32;0.30;;;8.10;99.90;;;;;;5009661;28;20166;-68
2021/09/13 04:31:07;;;;;;;0.30;0.30;;;8.00;99.90;;;;;;5010644;28;20021;-68
2021/09/13 04:33:33;;;;;;;0.70;0.40;;;8.00;99.90;;;;;;5010541;28;20048;-67
2021/09/13 04:35:59;;;;;;;0.32;0.30;;;8.00;99.90;;;;;;5010313;28;20075;-68
2021/09/13 04:38:24;;;;;;;0.30;0.30;;;8.10;99.90;;;;;;5010181;28;20498;-75
2021/09/13 04:40:50;;;;;;;2.45;0.50;;;8.20;99.90;;;;;;5010326;28;20022;-75
2021/09/13 04:43:16;;;;;;;0.75;0.30;;;9.80;99.90;;;;;;5010225;28;20022;-68
2021/09/13 04:45:41;;;;;;;0.30;0.30;;;10.90;99.90;;;;;;5010008;28;20034;-68
2021/09/13 04:48:07;;;;;;;0.60;0.30;;;10.50;99.90;;;;;;5006389;28;20029;-67
2021/09/13 04:50:33;;;;;;;0.45;0.40;;;9.90;99.90;;;;;;5001011;28;20038;-67
2021/09/13 04:52:59;;;;;;;0.57;0.30;;;9.50;99.90;;;;;;4998243;28;20385;-67
2021/09/13 04:55:25;;;;;;;4.03;0.40;;;9.30;99.90;;;;;;4999579;28;20049;-67
2021/09/13 04:57:50;;;;;;;1.55;0.40;;;9.10;99.90;;;;;;4999702;28;20039;-67
2021/09/13 05:00:16;;;;;;;1.13;0.30;;;9.10;99.90;;;;;;4996268;28;20495;-67
2021/09/13 05:02:42;;;;;;;0.30;0.30;;;9.40;99.90;;;;;;4997744;28;20035;-67
2021/09/13 05:05:09;;;;;;;0.20;0.20;;;9.70;99.90;;;;;;4998626;28;20030;-69
2021/09/13 05:07:34;;;;;;;0.32;0.30;;;10.10;99.90;;;;;;4999871;28;20033;-69
2021/09/13 05:10:02;;;;;;;0.38;0.30;;;10.40;99.90;;;;;;4998576;28;20034;-69
2021/09/13 05:12:27;;;;;;;0.40;0.40;;;10.70;99.90;;;;;;5000179;28;20037;-69
2021/09/13 05:14:53;;;;;;;0.30;0.30;;;11.10;99.90;;;;;;5000588;28;20188;-69
2021/09/13 05:17:19;;;;;;;0.40;0.30;;;11.40;99.90;;;;;;4998524;28;20037;-69
2021/09/13 05:19:44;;;;;;;1.27;0.20;;;11.70;99.90;;;;;;4999520;28;20468;-69
2021/09/13 05:22:10;;;;;;;0.30;0.30;;;12.00;99.90;;;;;;5000438;28;20075;-68
2021/09/13 05:24:36;;;;;;;0.20;0.20;;;12.30;99.90;;;;;;5009584;28;20026;-68
2021/09/13 05:27:02;;;;;;;1.35;0.30;;;12.40;99.90;;;;;;5009625;28;20554;-67
2021/09/13 05:29:27;;;;;;;1.50;0.38;;;12.60;99.90;;;;;;5009589;28;20026;-68
2021/09/13 05:31:53;;;;;;;0.32;0.20;;;12.80;99.90;;;;;;5009660;28;20029;-68
2021/09/13 05:34:19;;;;;;;1.17;0.30;;;13.00;99.90;;;;;;5009609;28;20033;-68
2021/09/13 05:36:45;;;;;;;0.28;0.25;;;13.10;99.90;;;;;;5009383;28;20395;-68
2021/09/13 05:39:11;;;;;;;0.20;0.20;;;13.30;99.90;;;;;;5009155;28;20038;-67
2021/09/13 05:41:37;;;;;;;0.82;0.22;;;13.50;99.90;;;;;;5009316;28;20041;-68
2021/09/13 05:44:05;;;;;;;1.55;0.20;;;13.70;99.90;;;;;;5009388;28;20421;-68
2021/09/13 05:46:30;;;;;;;0.43;0.20;;;13.90;99.60;;;;;;5009113;28;20026;-68
2021/09/13 05:48:56;;;;;;;0.28;0.22;;;14.00;98.90;;;;;;5009143;28;20068;-68
2021/09/13 05:51:22;;;;;;;0.60;0.20;;;14.20;98.50;;;;;;5008030;28;20037;-68
2021/09/13 05:53:48;;;;;;;0.73;0.30;;;14.30;97.80;;;;;;5009005;28;20029;-68
2021/09/13 05:56:13;;;;;;;0.47;0.20;;;14.50;96.80;;;;;;5009422;28;20034;-68
2021/09/13 05:58:39;;;;;;;1.00;0.25;;;14.50;95.70;;;;;;5008991;28;20481;-68
2021/09/13 06:01:05;;;;;;;0.77;0.30;;;14.60;94.60;;;;;;5009318;28;20034;-68
2021/09/13 06:03:31;;;;;;;0.35;0.20;;;14.50;94.20;;;;;;5009187;28;20034;-68
2021/09/13 06:05:56;;;;;;;0.10;0.10;;;14.70;94.90;;;;;;5009262;28;20355;-67
2021/09/13 06:08:22;;;;;;;3.60;0.20;;;14.70;93.80;;;;;;5009078;28;20030;-67
2021/09/13 06:10:48;;;;;;;0.20;0.20;;;14.70;93.20;;;;;;5009004;28;20029;-66
2021/09/13 06:13:14;;;;;;;0.98;0.30;;;14.70;92.60;;;;;;5009011;28;20025;-69
2021/09/13 06:15:40;;;;;;;0.95;0.28;;;14.70;92.20;;;;;;4995083;28;20587;-67
2021/09/13 06:18:06;;;;;;;0.20;0.20;;;14.70;92.30;;;;;;4992260;28;20049;-68
2021/09/13 06:20:33;;;;;;;0.20;0.20;;;14.80;92.10;;;;;;5002746;28;20490;-68
2021/09/13 06:22:59;;;;;;;0.25;0.20;;;14.80;91.10;;;;;;4999675;28;20022;-68
2021/09/13 06:25:25;;;;;;;2.38;0.20;;;14.60;91.10;;;;;;5006062;28;20381;-68
2021/09/13 06:27:51;;;;;;;2.10;0.30;;;14.70;91.20;;;;;;5008979;28;20022;-68
2021/09/13 06:30:17;;;;;;;1.13;0.28;;;14.60;91.20;;;;;;5008715;28;20054;-68
2021/09/13 06:32:43;;;;;;;1.15;0.20;;;14.70;91.00;;;;;;5008559;28;20038;-67
2021/09/13 06:35:09;;;;;;;0.30;0.20;;;14.60;90.80;;;;;;5008739;28;20110;-68
2021/09/13 06:37:35;;;;;;;1.23;0.22;;;14.60;90.50;;;;;;5008455;28;20034;-68
2021/09/13 06:40:01;;;;;;;0.55;0.30;;;14.50;90.50;;;;;;5009065;28;20029;-68
2021/09/13 06:42:30;;;;;;;4.03;0.20;;;14.60;90.50;;;;;;5008434;28;20078;-69
2021/09/13 06:44:56;;;;;;;1.42;0.30;;;14.60;90.10;;;;;;5008741;28;20057;-67
2021/09/13 06:47:44;;;;;;;1.83;0.30;;;14.60;90.10;;;;;;5008663;28;20025;-66
2021/09/13 06:50:09;;;;;;;0.55;0.20;;;14.70;90.30;;;;;;5008914;28;20046;-65
2021/09/13 06:52:35;;;;;;;2.60;0.32;;;14.60;90.30;;;;;;5011605;28;20026;-66
2021/09/13 06:55:01;;;;;;;0.47;0.20;;;14.50;88.10;;;;;;5011693;28;20106;-66
2021/09/13 06:57:26;;;;;;;4.38;1.08;;;14.50;89.70;;;;;;5011479;28;20033;-68
2021/09/13 06:59:52;;;;;;;5.22;0.50;;;15.10;99.90;;;;;;5011719;28;20037;-67
2021/09/13 07:02:18;;;;;;;4.15;0.40;;;15.60;97.60;;;;;;5011840;28;20018;-67
2021/09/13 07:04:44;;;;;;;2.78;0.68;;;15.80;95.70;;;;;;5011296;28;20030;-70
2021/09/13 07:07:09;;;;;;;3.63;0.70;;;16.00;95.50;;;;;;5002953;28;20114;-70
2021/09/13 07:09:36;;;;;;;3.00;0.40;;;16.00;94.90;;;;;;4997653;28;20113;-70
2021/09/13 07:12:01;;;;;;;2.90;0.50;;;16.10;95.70;;;;;;5008047;28;20027;-69
2021/09/13 07:14:27;;;;;;;2.85;0.30;;;16.20;96.10;;;;;;5001061;28;20602;-70
2021/09/13 07:16:53;;;;;;;3.75;0.70;;;16.20;95.00;;;;;;5011736;28;20053;-67
2021/09/13 07:19:19;;;;;;;2.10;0.20;;;16.20;97.50;;;;;;5011709;28;20069;-67
2021/09/13 07:21:44;;;;;;;3.13;0.30;;;15.90;90.70;;;;;;5011674;28;20575;-67
2021/09/13 07:24:10;;;;;;;0.73;0.20;;;15.10;87.40;;;;;;5011630;28;20033;-67
2021/09/13 07:26:36;;;;;;;1.60;0.40;;;14.50;87.30;;;;;;5011211;28;20026;-67
2021/09/13 07:29:03;;;;;;;5.05;0.50;;;13.90;85.50;;;;;;5011605;28;20036;-67
2021/09/13 07:31:29;;;;;;;4.22;0.30;;;13.50;87.50;;;;;;5011042;28;20515;-67
2021/09/13 07:33:55;;;;;;;3.55;0.63;;;13.20;87.80;;;;;;5011276;28;20026;-67
2021/09/13 07:36:21;;;;;;;2.88;0.40;;;13.00;89.70;;;;;;5011231;28;20386;-67
2021/09/13 07:38:46;;;;;;;0.70;0.28;;;12.90;90.20;;;;;;5011374;28;20038;-67
2021/09/13 07:41:12;;;;;;;1.33;0.38;;;12.70;90.30;;;;;;5011471;28;20026;-67
2021/09/13 07:43:38;;;;;;;0.60;0.30;;;12.50;88.90;;;;;;5011332;28;20065;-67
2021/09/13 07:46:04;;;;;;;8.35;0.60;;;12.40;89.40;;;;;;5011337;28;20030;-66
2021/09/13 07:48:29;;;;;;;0.30;0.10;;;12.30;90.10;;;;;;5010818;28;20038;-66
2021/09/13 07:50:55;;;;;;;0.75;0.20;;;12.20;89.30;;;;;;5011259;28;20022;-66
2021/09/13 07:53:21;;;;;;;2.65;0.32;;;12.10;87.80;;;;;;5011297;28;20168;-66
2021/09/13 07:55:47;;;;;;;3.47;0.50;;;12.00;87.80;;;;;;5010629;28;20507;-66
2021/09/13 07:58:12;;;;;;;1.65;0.30;;;12.00;88.80;;;;;;5009368;28;20129;-66
2021/09/13 08:00:38;;;;;;;0.50;0.30;;;12.00;88.80;;;;;;5010629;28;20026;-66
2021/09/13 08:03:04;;;;;;;0.90;0.20;;;12.00;88.10;;;;;;5010814;28;20030;-66
2021/09/13 08:05:29;;;;;;;1.10;0.32;;;12.00;89.00;;;;;;5010581;28;20025;-66
2021/09/13 08:07:55;;;;;;;2.45;0.30;;;12.00;88.20;;;;;;5011018;28;20037;-66
2021/09/13 08:10:21;;;;;;;2.22;0.40;;;12.10;87.80;;;;;;5011009;28;20079;-66
2021/09/13 08:12:47;;;;;;;0.28;0.20;;;12.00;86.60;;;;;;5010539;28;20533;-66
2021/09/13 08:15:12;;;;;;;0.75;0.20;;;12.00;86.10;;;;;;5010685;28;20378;-66
2021/09/13 08:17:38;;;;;;;3.17;0.30;;;12.00;87.10;;;;;;5010371;28;20037;-66
2021/09/13 08:20:05;;;;;;;2.05;0.43;;;12.00;86.90;;;;;;5010739;28;20038;-66
2021/09/13 08:22:30;;;;;;;6.28;0.52;;;12.00;86.60;;;;;;5010494;28;20644;-66
2021/09/13 08:24:56;;;;;;;1.50;0.40;;;12.00;85.30;;;;;;5010483;28;20146;-66
2021/09/13 08:27:22;;;;;;;0.90;0.30;;;11.90;84.40;;;;;;5010594;28;20051;-66
2021/09/13 08:29:48;;;;;;;0.52;0.50;;;11.90;85.00;;;;;;5010437;28;20378;-66
2021/09/13 08:32:14;;;;;;;1.40;0.50;;;11.90;84.50;;;;;;5010362;28;20054;-66
2021/09/13 08:34:40;;;;;;;3.13;0.40;;;11.90;85.30;;;;;;5010211;28;20028;-66
2021/09/13 08:37:05;;;;;;;5.18;0.32;;;11.90;83.60;;;;;;5010211;28;20026;-66
2021/09/13 08:39:31;;;;;;;1.42;0.52;;;11.90;83.20;;;;;;5010416;28;20034;-66
2021/09/13 08:41:57;;;;;;;1.23;0.32;;;11.80;80.90;;;;;;5010563;28;20029;-67
2021/09/13 08:44:23;;;;;;;1.73;0.30;;;11.80;81.00;;;;;;5010262;28;20040;-66
2021/09/13 08:46:56;;;;;;;0.45;0.30;;;11.80;81.50;;;;;;5010354;28;20026;-67
2021/09/13 08:49:34;;;;;;;2.13;0.40;;;11.70;78.90;;;;;;5009973;28;20037;-73
2021/09/13 08:52:03;;;;;;;2.45;0.30;;;12.00;92.40;;;;;;5009874;28;20022;-65
2021/09/13 08:54:31;;;;;;;0.30;0.30;;;12.50;87.80;;;;;;5010076;28;20480;-66
2021/09/13 08:57:00;;;;;;;1.98;0.30;;;12.30;80.40;;;;;;5009943;28;20607;-66
2021/09/13 08:59:28;;;;;;;;;;;12.10;80.20;;;;;;5010601;28;20056;-67
2021/09/13 09:01:54;;;;;;;3.67;0.60;;;12.00;80.00;;;;;;5009811;28;19906;-68
2021/09/13 09:04:21;;;;;;;2.78;0.63;;;11.90;82.10;;;;;;5003057;28;20435;-68
2021/09/13 09:06:48;;;;;;;1.33;0.40;;;11.80;84.20;;;;;;4990041;28;20084;-67
2021/09/13 09:09:22;;;;;;;1.08;0.32;;;11.90;84.40;;;;;;4998515;28;20031;-67
2021/09/13 09:11:56;;;;;;;1.05;0.30;;;11.80;84.70;;;;;;4999051;28;20083;-67
2021/09/13 09:14:34;;;;;;;1.02;0.30;;;11.80;86.00;;;;;;4998848;28;20037;-67
2021/09/13 09:17:05;;;;;;;0.90;0.40;;;11.80;86.00;;;;;;4993276;28;20023;-68
2021/09/13 09:19:31;;;;;;;3.00;0.30;;;11.80;86.80;;;;;;4990146;28;20068;-67
2021/09/13 09:22:15;;;;;;;0.98;0.32;;;11.80;86.50;;;;;;4990353;28;20022;-67
2021/09/13 09:24:41;;;;;;;1.25;0.30;;;11.70;86.80;;;;;;4989948;28;20440;-67
2021/09/13 09:27:07;;;;;;;1.23;0.30;;;11.70;86.30;;;;;;4990021;28;20022;-67
2021/09/13 09:29:33;;;;;;;0.32;0.30;;;11.70;86.10;;;;;;4989819;28;20026;-67
2021/09/13 09:32:00;;;;;;;0.75;0.35;;;11.80;85.00;;;;;;4989926;28;20113;-67
2021/09/13 09:34:31;;;;;;;2.05;0.60;;;11.80;85.90;;;;;;4990140;28;20052;-67
2021/09/13 09:37:10;;;;;;;0.30;0.20;;;11.90;85.50;;;;;;4988558;28;20031;-67
2021/09/13 09:39:49;;;;;;;3.88;0.75;;;11.90;85.40;;;;;;4988635;28;20399;-67
2021/09/13 09:42:28;;;;;;;1.27;0.40;;;11.90;85.50;;;;;;4992792;28;20428;-67
2021/09/13 09:44:54;;;;;;;2.53;0.40;;;11.80;83.90;;;;;;4989681;28;20469;-68
2021/09/13 09:47:21;;;;;;;0.90;0.50;;;11.80;83.60;;;;;;4989608;28;20102;-68
2021/09/13 09:49:53;;;;;;;1.67;0.50;;;11.90;83.70;;;;;;4989690;28;20060;-68
2021/09/13 09:52:32;;;;;;;2.03;0.43;;;11.90;83.80;;;;;;4989666;28;20030;-68
2021/09/13 09:55:18;;;;;;;1.00;0.40;;;11.90;83.40;;;;;;4989415;28;20065;-67
2021/09/13 09:58:03;;;;;;;4.50;0.50;;;12.00;82.20;;;;;;4991919;28;20509;-68
2021/09/13 10:00:29;;;;;;;9.75;0.60;;;12.00;82.20;;;;;;4989793;28;20080;-68
2021/09/13 10:02:56;;;;;;;1.55;0.60;;;12.00;82.30;;;;;;4989273;28;20501;-68
2021/09/13 10:05:27;;;;;;;5.00;1.42;;;12.10;82.70;;;;;;4989567;28;20034;-67
2021/09/13 10:07:53;;;;;;;2.80;0.40;;;12.10;82.00;;;;;;4989334;28;20067;-68
2021/09/13 10:10:20;;;;;;;3.92;0.50;;;12.10;80.90;;;;;;4989757;28;20033;-67
2021/09/13 10:12:47;;;;;;;4.13;0.60;;;12.00;79.60;;;;;;4991915;28;20470;-67
2021/09/13 10:15:14;;;;;;;1.33;0.47;;;12.00;80.00;;;;;;4998892;28;20079;-67
2021/09/13 10:17:40;;;;;;;1.25;0.40;;;12.00;82.10;;;;;;5008649;28;20498;-68
2021/09/13 10:20:10;;;;;;;2.85;0.30;;;12.10;80.80;;;;;;5008916;28;20113;-67
2021/09/13 10:22:38;;;;;;;0.68;0.22;;;12.10;80.20;;;;;;4998039;28;20026;-67
2021/09/13 10:25:05;;;;;;;1.63;0.35;;;12.20;78.40;;;;;;5008836;28;20354;-67
2021/09/13 10:27:40;;;;;;;2.75;0.70;;;12.20;79.70;;;;;;5011983;28;20025;-67
2021/09/13 10:30:13;;;;;;;4.60;0.50;;;12.20;79.40;;;;;;5011060;28;20052;-68
2021/09/13 10:32:42;;;;;;;0.55;0.35;;;12.20;78.80;;;;;;4992649;28;20034;-67
2021/09/13 10:35:09;;;;;;;0.88;0.30;;;12.20;79.00;;;;;;5006084;28;20465;-67
2021/09/13 10:37:43;;;;;;;1.20;0.40;;;12.10;76.80;;;;;;5010892;28;20041;-67
2021/09/13 10:40:15;;;;;;;0.57;0.30;;;12.10;77.20;;;;;;5001184;28;20029;-67
2021/09/13 10:42:53;;;;;;;2.08;0.50;;;12.20;77.60;;;;;;4999296;28;20477;-67
2021/09/13 10:45:37;;;;;;;2.72;0.47;;;12.20;76.20;;;;;;5001132;28;20064;-68
2021/09/13 10:48:08;;;;;;;2.03;0.45;;;12.30;74.30;;;;;;4998483;28;20052;-67
2021/09/13 10:50:40;;;;;;;0.82;0.40;;;12.30;74.80;;;;;;5006213;28;20037;-67
2021/09/13 10:53:18;;;;;;;2.03;0.60;;;12.30;74.10;;;;;;5012006;28;20037;-67
2021/09/13 10:55:51;;;;;;;14.38;1.73;;;12.30;74.00;;;;;;5011509;28;20065;-67
2021/09/13 10:58:19;;;;;;;0.45;0.28;;;12.30;74.50;;;;;;5011746;28;20109;-67
2021/09/13 11:00:44;;;;;;;15.13;1.70;;;12.30;73.70;;;;;;5011707;28;20030;-67
2021/09/13 11:03:22;;;;;;;12.43;0.70;;;12.30;72.70;;;;;;5011748;28;20091;-67
2021/09/13 11:06:16;;;;;;;5.10;0.47;;;12.20;72.80;;;;;;5006291;28;20034;-68
2021/09/13 11:08:50;;;;;;;1.40;0.60;;;12.20;72.60;;;;;;4992002;28;20492;-67
2021/09/13 11:11:18;;;;;;;0.68;0.30;;;12.20;73.80;;;;;;4991930;28;20026;-67
2021/09/13 11:13:47;;;;;;;1.25;0.50;;;12.20;73.20;;;;;;4991821;28;20030;-67
2021/09/13 11:16:17;;;;;;;6.53;1.20;;;12.30;73.30;;;;;;4992258;28;20069;-67
2021/09/13 11:18:45;;;;;;;0.68;0.30;;;12.30;73.10;;;;;;4991797;28;20070;-67
2021/09/13 11:21:32;;;;;;;0.30;0.20;;;12.30;71.10;;;;;;4991820;28;20065;-67
2021/09/13 11:24:03;;;;;;;1.45;0.30;;;12.20;69.60;;;;;;4991737;28;20032;-68
2021/09/13 11:26:36;;;;;;;0.57;0.30;;;12.30;69.70;;;;;;5004432;28;20030;-68
2021/09/13 11:29:02;;;;;;;1.95;0.20;;;12.30;70.30;;;;;;5007210;28;20133;-69
2021/09/13 11:31:38;;;;;;;0.22;0.20;;;12.30;71.40;;;;;;4991874;28;20670;-68
2021/09/13 11:34:19;;;;;;;2.40;0.40;;;12.30;71.00;;;;;;4991471;28;20034;-69
2021/09/13 11:36:57;;;;;;;0.30;0.30;;;12.30;68.60;;;;;;4991157;28;20037;-68
2021/09/13 11:39:32;;;;;;;0.20;0.20;;;12.30;69.40;;;;;;4991679;28;20042;-68
2021/09/13 11:42:08;;;;;;;0.43;0.20;;;12.40;69.50;;;;;;4991469;28;20023;-69
2021/09/13 11:44:45;;;;;;;1.10;0.28;;;12.30;68.70;;;;;;4991666;28;20453;-69
2021/09/13 11:47:23;;;;;;;0.52;0.30;;;12.20;68.80;;;;;;4991345;28;20091;-69
2021/09/13 11:49:53;;;;;;;2.22;0.32;;;12.20;68.80;;;;;;4991505;28;20105;-68
2021/09/13 11:52:28;;;;;;;0.43;0.20;;;12.20;69.00;;;;;;4991704;28;20127;-69
2021/09/13 11:55:08;;;;;;;0.95;0.35;;;12.10;68.60;;;;;;4991317;28;20054;-68
2021/09/13 11:57:44;;;;;;;3.83;0.20;;;12.10;67.90;;;;;;4991317;28;20058;-68
2021/09/13 12:00:24;;;;;;;1.85;0.30;;;12.20;68.20;;;;;;4991406;28;20034;-68
2021/09/13 12:03:00;;;;;;;0.20;0.20;;;12.30;66.80;;;;;;4991398;28;20053;-69
2021/09/13 12:05:34;;;;;;;0.20;0.20;;;12.30;66.90;;;;;;4991593;28;20046;-68
2021/09/13 12:08:02;;;;;;;1.42;0.35;;;12.30;65.10;;;;;;4991121;28;20530;-69
2021/09/13 12:10:33;;;;;;;0.40;0.30;;;12.20;65.70;;;;;;4991515;28;20042;-70
2021/09/13 12:13:09;;;;;;;1.80;0.38;;;12.10;66.10;;;;;;4991204;28;20038;-67
2021/09/13 12:15:36;;;;;;;0.30;0.30;;;12.20;64.90;;;;;;4991133;28;20030;-66
2021/09/13 12:18:10;;;;;;;1.20;0.40;;;12.30;65.80;;;;;;4990858;28;20518;-66
2021/09/13 12:20:38;;;;;;;2.38;0.30;;;12.30;65.00;;;;;;4991085;28;20115;-66
2021/09/13 12:23:07;;;;;;;0.85;0.20;;;12.20;66.10;;;;;;4990886;28;20622;-66
2021/09/13 12:25:45;;;;;;;0.55;0.38;;;12.10;65.60;;;;;;4991056;28;20026;-66
2021/09/13 12:28:13;;;;;;;0.25;0.25;;;12.10;65.50;;;;;;4990990;28;20037;-66
2021/09/13 12:30:42;;;;;;;0.77;0.30;;;12.10;64.90;;;;;;4991428;28;20053;-66
2021/09/13 12:33:10;;;;;;;1.63;0.38;;;12.00;65.50;;;;;;4990860;28;20075;-66
2021/09/13 12:35:40;;;;;;;1.83;0.40;;;12.00;66.30;;;;;;4990936;28;20102;-66
2021/09/13 12:38:16;;;;;;;0.55;0.30;;;12.00;66.90;;;;;;4990758;28;20330;-66
2021/09/13 12:40:53;;;;;;;0.30;0.20;;;12.00;65.00;;;;;;4991256;28;20061;-66
2021/09/13 12:43:22;;;;;;;0.60;0.40;;;12.20;66.00;;;;;;4990757;28;20112;-67
2021/09/13 12:45:48;;;;;;;0.35;0.20;;;12.30;65.70;;;;;;4990652;28;20031;-67
2021/09/13 12:48:25;;;;;;;1.88;0.40;;;12.30;64.80;;;;;;4990120;28;20033;-66
2021/09/13 12:50:55;;;;;;;0.52;0.50;;;12.40;65.40;;;;;;4990731;28;20030;-65
2021/09/13 12:53:27;;;;;;;1.33;0.40;;;12.30;64.70;;;;;;4990565;28;20025;-65
2021/09/13 12:55:54;;;;;;;3.70;0.40;;;12.40;64.10;;;;;;4990324;28;20390;-65
2021/09/13 12:58:27;;;;;;;0.75;0.20;;;12.40;63.40;;;;;;4990379;28;20084;-66
2021/09/13 13:00:55;;;;;;;4.75;0.30;;;12.40;63.10;;;;;;4990385;28;20054;-66
2021/09/13 13:03:23;;;;;;;2.03;0.38;;;12.50;64.40;;;;;;4990212;28;20022;-65
2021/09/13 13:05:51;;;;;;;0.85;0.20;;;12.50;64.10;;;;;;5003584;28;20117;-66
2021/09/13 13:08:18;;;;;;;2.50;0.30;;;12.50;63.70;;;;;;5009950;28;20049;-67
2021/09/13 13:10:44;;;;;;;2.47;0.30;;;12.60;65.10;;;;;;5001335;28;20045;-67
2021/09/13 13:13:11;;;;;;;1.67;0.20;;;12.60;63.20;;;;;;4999589;28;20089;-67
2021/09/13 13:15:38;;;;;;;0.52;0.35;;;12.60;62.60;;;;;;5000526;28;20023;-68
2021/09/13 13:18:13;;;;;;;0.60;0.50;;;12.60;62.10;;;;;;4998421;28;20091;-68
2021/09/13 13:20:39;;;;;;;2.05;0.25;;;12.50;63.10;;;;;;4998449;28;20492;-67
2021/09/13 13:23:06;;;;;;;0.20;0.20;;;12.40;62.80;;;;;;4997162;28;20030;-67
2021/09/13 13:25:32;;;;;;;0.20;0.20;;;12.40;62.70;;;;;;4999176;28;20014;-67
2021/09/13 13:27:58;;;;;;;1.23;0.40;;;12.30;62.30;;;;;;5000216;28;20536;-67
2021/09/13 13:30:24;;;;;;;0.20;0.20;;;12.30;62.60;;;;;;4998542;28;20540;-67